Time;durP1;ratioP1;P1;durP2;ratioP2;P2;SDS_P1;SDS_P2;PMS_P1;PMS_P2;Temp;Humidity;BMP_temperature;BMP_pressure;BME280_temperature;BME280_humidity;BME280_pressure;Samples;Min_cycle;Max_cycle;Signal;HPM_P1;HPM_P2
2022/03/02 00:01:20;;;;;;;120.10;55.03;;;;;;;-3.39;69.05;102845.97;1749140;82;21149;-84
2022/03/02 00:03:47;;;;;;;106.47;50.52;;;;;;;-3.39;69.15;102860.14;1749124;81;21038;-83
2022/03/02 00:06:14;;;;;;;106.17;49.23;;;;;;;-3.40;69.19;102859.58;1748838;81;21816;-83
2022/03/02 00:08:40;;;;;;;110.30;50.60;;;;;;;-3.42;69.16;102847.80;1717848;82;21043;-83
2022/03/02 00:11:07;;;;;;;115.28;52.38;;;;;;;-3.42;69.12;102845.23;1749079;80;21563;-83
2022/03/02 00:13:33;;;;;;;114.03;51.75;;;;;;;-3.45;68.99;102844.91;1749213;82;21004;-83
2022/03/02 00:16:00;;;;;;;111.85;50.55;;;;;;;-3.46;69.08;102845.62;1749249;82;21055;-83
2022/03/02 00:18:27;;;;;;;106.85;50.58;;;;;;;-3.46;69.23;102846.91;1749010;80;21737;-83
2022/03/02 00:20:53;;;;;;;109.45;53.58;;;;;;;-3.46;69.32;102843.05;1748757;82;21015;-83
2022/03/02 00:23:20;;;;;;;105.47;48.85;;;;;;;-3.45;69.38;102836.23;1748660;82;21026;-83
2022/03/02 00:25:47;;;;;;;107.83;50.08;;;;;;;-3.44;69.45;102834.22;1748564;81;21566;-83
2022/03/02 00:28:14;;;;;;;110.12;51.18;;;;;;;-3.42;69.46;102835.31;1748875;80;21157;-83
2022/03/02 00:30:42;;;;;;;107.37;52.60;;;;;;;-3.42;69.47;102833.64;1729713;80;21754;-83
2022/03/02 00:33:10;;;;;;;112.92;51.45;;;;;;;-3.43;69.50;102833.12;1712499;83;21063;-83
2022/03/02 00:35:36;;;;;;;103.25;50.60;;;;;;;-3.45;69.54;102832.38;1713013;83;21083;-82
2022/03/02 00:38:04;;;;;;;108.40;49.48;;;;;;;-3.46;69.73;102829.27;1712607;83;21175;-82
2022/03/02 00:40:30;;;;;;;113.32;49.90;;;;;;;-3.46;69.82;102830.18;1712466;82;21575;-82
2022/03/02 00:42:57;;;;;;;97.75;46.60;;;;;;;-3.46;69.86;102833.13;1712871;83;21914;-82
2022/03/02 00:45:25;;;;;;;100.67;46.02;;;;;;;-3.48;69.73;102823.94;1712788;83;21071;-81
2022/03/02 00:47:52;;;;;;;102.45;46.88;;;;;;;-3.47;69.74;102818.41;1713034;83;21079;-82
2022/03/02 00:50:19;;;;;;;94.87;44.53;;;;;;;-3.47;69.72;102820.64;1713356;83;21055;-82
2022/03/02 00:52:46;;;;;;;92.50;43.25;;;;;;;-3.48;69.71;102811.45;1713176;81;21055;-82
2022/03/02 00:55:13;;;;;;;99.95;45.05;;;;;;;-3.49;69.69;102809.25;1712917;83;22850;-83
2022/03/02 00:57:39;;;;;;;84.32;43.13;;;;;;;-3.49;69.71;102805.39;1712984;83;21156;-83
2022/03/02 01:00:07;;;;;;;86.72;42.98;;;;;;;-3.50;69.74;102803.55;1713125;83;21653;-82
2022/03/02 01:02:33;;;;;;;92.90;43.68;;;;;;;-3.51;69.72;102800.41;1713437;83;21131;-83
2022/03/02 01:05:00;;;;;;;90.80;42.10;;;;;;;-3.50;69.72;102812.55;1713626;83;21071;-84
2022/03/02 01:07:27;;;;;;;88.55;41.73;;;;;;;-3.52;69.67;102799.88;1713476;82;22506;-83
2022/03/02 01:09:54;;;;;;;84.92;42.30;;;;;;;-3.52;69.69;102796.02;1712834;83;21509;-83
2022/03/02 01:12:20;;;;;;;89.50;43.52;;;;;;;-3.51;69.73;102791.39;1713235;83;21019;-83
2022/03/02 01:14:47;;;;;;;89.42;42.83;;;;;;;-3.52;69.70;102793.45;1713384;83;21253;-83
2022/03/02 01:17:14;;;;;;;91.25;43.13;;;;;;;-3.53;69.63;102790.31;1713471;83;21067;-83
2022/03/02 01:19:40;;;;;;;77.00;40.40;;;;;;;-3.54;69.64;102784.63;1713668;83;22670;-83
2022/03/02 01:22:07;;;;;;;84.15;41.60;;;;;;;-3.56;69.72;102779.69;1713274;83;21036;-83
2022/03/02 01:24:33;;;;;;;85.90;41.02;;;;;;;-3.58;69.69;102776.93;1713401;81;21036;-83
2022/03/02 01:27:03;;;;;;;91.95;44.48;;;;;;;-3.60;69.69;102774.94;1713421;83;21066;-83
2022/03/02 01:29:30;;;;;;;96.90;44.13;;;;;;;-3.63;69.76;102770.33;1713391;83;21040;-82
2022/03/02 01:31:58;;;;;;;91.35;43.02;;;;;;;-3.60;69.77;102772.36;1712980;83;22570;-83
2022/03/02 01:34:24;;;;;;;91.00;44.42;;;;;;;-3.58;69.81;102771.78;1712992;83;21051;-83
2022/03/02 01:36:51;;;;;;;95.83;46.00;;;;;;;-3.59;69.83;102769.02;1713461;83;21086;-83
2022/03/02 01:39:18;;;;;;;93.00;43.95;;;;;;;-3.62;69.80;102767.03;1713603;83;21048;-83
2022/03/02 01:41:44;;;;;;;100.15;49.15;;;;;;;-3.60;69.86;102768.12;1713585;83;21632;-83
2022/03/02 01:44:11;;;;;;;106.97;47.95;;;;;;;-3.61;69.99;102762.41;1713573;83;21749;-83
2022/03/02 01:46:38;;;;;;;97.10;46.05;;;;;;;-3.59;70.01;102765.16;1713500;83;21035;-83
2022/03/02 01:49:04;;;;;;;100.20;44.15;;;;;;;-3.59;69.98;102761.30;1713313;83;21319;-83
2022/03/02 01:51:31;;;;;;;97.05;46.77;;;;;;;-3.59;70.04;102756.16;1713403;82;21117;-83
2022/03/02 01:53:58;;;;;;;97.15;45.40;;;;;;;-3.59;70.08;102757.44;1713381;83;21524;-83
2022/03/02 01:56:24;;;;;;;93.80;44.42;;;;;;;-3.61;70.12;102749.54;1713325;83;21755;-82
2022/03/02 01:58:51;;;;;;;96.15;45.17;;;;;;;-3.60;70.10;102752.67;1713098;82;21071;-82
2022/03/02 02:01:18;;;;;;;95.85;46.23;;;;;;;-3.58;70.09;102748.61;1698591;83;33510;-83
2022/03/02 02:03:45;;;;;;;88.17;43.42;;;;;;;-3.58;70.13;102744.75;1712728;83;21533;-83
2022/03/02 02:06:13;;;;;;;92.65;46.42;;;;;;;-3.59;70.15;102736.85;1713201;83;21035;-82
2022/03/02 02:08:41;;;;;;;89.45;45.10;;;;;;;-3.58;70.22;102729.69;1713074;81;21926;-82
2022/03/02 02:11:09;;;;;;;89.60;44.00;;;;;;;-3.58;70.29;102727.11;1712945;82;21608;-83
2022/03/02 02:13:35;;;;;;;99.13;45.65;;;;;;;-3.58;70.30;102729.31;1676179;83;21055;-82
2022/03/02 02:16:04;;;;;;;98.10;48.05;;;;;;;-3.58;70.34;102726.73;1713150;83;21156;-83
2022/03/02 02:18:31;;;;;;;92.85;44.25;;;;;;;-3.57;70.40;102725.97;1713227;83;21087;-83
2022/03/02 02:21:08;;;;;;;89.60;45.33;;;;;;;-3.57;70.37;102722.11;1713089;82;21759;-83
2022/03/02 02:23:36;;;;;;;95.42;45.08;;;;;;;-3.56;70.43;102718.81;1713085;83;21111;-83
2022/03/02 02:26:03;;;;;;;84.35;41.05;;;;;;;-3.55;70.47;102729.67;1713119;83;21004;-83
2022/03/02 02:28:30;;;;;;;83.92;41.73;;;;;;;-3.57;70.49;102717.34;1713090;83;21152;-84
2022/03/02 02:30:58;;;;;;;84.20;40.75;;;;;;;-3.58;70.54;102715.53;1712902;82;21728;-84
2022/03/02 02:33:25;;;;;;;79.47;38.10;;;;;;;-3.59;70.52;102707.25;1711528;83;21795;-83
2022/03/02 02:35:52;;;;;;;80.07;39.05;;;;;;;-3.59;70.53;102708.16;1673538;85;21107;-83
2022/03/02 02:38:20;;;;;;;80.03;39.13;;;;;;;-3.59;70.50;102707.25;1673431;85;21055;-83
2022/03/02 02:40:47;;;;;;;78.90;38.30;;;;;;;-3.60;70.53;102706.34;1673654;84;21711;-83
2022/03/02 02:43:15;;;;;;;75.87;38.00;;;;;;;-3.59;70.53;102705.96;1673531;84;21522;-82
2022/03/02 02:45:41;;;;;;;71.35;36.77;;;;;;;-3.59;70.54;102703.39;1674196;84;21791;-83
2022/03/02 02:48:09;;;;;;;72.22;36.38;;;;;;;-3.59;70.54;102705.58;1673518;84;21075;-83
2022/03/02 02:50:36;;;;;;;73.75;35.78;;;;;;;-3.60;70.53;102696.05;1673723;84;21103;-83
2022/03/02 02:53:08;;;;;;;78.45;36.85;;;;;;;-3.60;70.53;102693.86;1673074;85;21553;-83
2022/03/02 02:55:34;;;;;;;72.60;37.70;;;;;;;-3.60;70.52;102695.14;1673337;83;21092;-82
2022/03/02 02:58:01;;;;;;;66.28;34.50;;;;;;;-3.59;70.53;102698.24;1673420;84;21774;-83
2022/03/02 03:00:31;;;;;;;71.28;36.55;;;;;;;-3.60;70.50;102701.20;1673881;85;21176;-83
2022/03/02 03:02:57;;;;;;;69.65;33.90;;;;;;;-3.62;70.53;102697.88;1673905;85;21080;-83
2022/03/02 03:05:28;;;;;;;65.25;33.10;;;;;;;-3.62;70.57;102701.74;1674068;84;21055;-83
2022/03/02 03:07:55;;;;;;;68.47;33.67;;;;;;;-3.63;70.55;102695.69;1673757;84;21083;-83
2022/03/02 03:10:22;;;;;;;70.40;32.85;;;;;;;-3.61;70.57;102695.87;1673922;85;21845;-84
2022/03/02 03:12:49;;;;;;;74.25;34.67;;;;;;;-3.61;70.54;102692.91;1674309;85;21047;-83
2022/03/02 03:15:17;;;;;;;66.97;33.90;;;;;;;-3.60;70.54;102686.13;1673507;84;21090;-83
2022/03/02 03:17:43;;;;;;;68.72;33.48;;;;;;;-3.60;70.54;102687.42;1673894;84;21560;-83
2022/03/02 03:20:11;;;;;;;68.85;34.75;;;;;;;-3.59;70.52;102685.38;1673985;84;21600;-83
2022/03/02 03:22:38;;;;;;;64.97;33.18;;;;;;;-3.61;70.52;102681.71;1673558;85;21717;-83
2022/03/02 03:25:07;;;;;;;64.60;32.40;;;;;;;-3.62;70.52;102685.02;1673704;84;21087;-83
2022/03/02 03:27:34;;;;;;;66.75;34.55;;;;;;;-3.64;70.53;102690.36;1674169;85;21151;-84
2022/03/02 03:30:01;;;;;;;62.78;31.20;;;;;;;-3.62;70.58;102681.16;1673311;85;21115;-83
2022/03/02 03:32:28;;;;;;;65.42;33.10;;;;;;;-3.64;70.51;102680.06;1681650;84;21122;-83
2022/03/02 03:34:55;;;;;;;66.22;33.83;;;;;;;-3.67;70.52;102678.08;1683172;85;22583;-83
2022/03/02 03:37:21;;;;;;;69.67;34.30;;;;;;;-3.69;70.53;102681.23;1683259;84;21039;-83
2022/03/02 03:39:48;;;;;;;64.80;33.75;;;;;;;-3.70;70.62;102682.86;1683598;84;21044;-84
2022/03/02 03:42:15;;;;;;;63.28;33.15;;;;;;;-3.72;70.67;102675.00;1683449;85;21082;-83
2022/03/02 03:44:41;;;;;;;64.32;31.05;;;;;;;-3.72;70.72;102673.71;1683606;84;21119;-83
2022/03/02 03:47:08;;;;;;;64.32;34.23;;;;;;;-3.75;70.57;102664.34;1683363;84;22621;-83
2022/03/02 03:49:34;;;;;;;76.75;36.50;;;;;;;-3.82;70.45;102665.67;1683098;84;21119;-82
2022/03/02 03:52:01;;;;;;;70.20;35.73;;;;;;;-3.86;70.48;102671.22;1683011;85;21058;-82
2022/03/02 03:54:28;;;;;;;73.42;36.95;;;;;;;-3.91;70.49;102671.06;1683281;85;21086;-82
2022/03/02 03:56:54;;;;;;;77.37;37.98;;;;;;;-3.95;70.52;102663.36;1683332;85;21070;-82
2022/03/02 03:59:21;;;;;;;70.00;34.53;;;;;;;-3.97;70.61;102660.08;1680340;84;21727;-84
2022/03/02 04:01:48;;;;;;;70.08;35.83;;;;;;;-4.01;70.71;102651.10;1669112;84;21634;-83
2022/03/02 04:04:28;;;;;;;75.60;35.43;;;;;;;-4.02;70.81;102648.34;1673584;84;21122;-86
2022/03/02 04:07:04;;;;;;;74.05;35.95;;;;;;;-4.03;70.93;102652.59;1487632;95;21839;-86
2022/03/02 04:09:31;;;;;;;62.67;33.80;;;;;;;-4.03;71.03;102650.39;1488129;94;21157;-84
2022/03/02 04:11:57;;;;;;;69.35;32.45;;;;;;;-4.10;71.03;102634.63;1463032;96;21877;-83
2022/03/02 04:14:27;;;;;;;61.45;31.25;;;;;;;-4.03;71.05;102646.16;1489727;96;21198;-88
2022/03/02 04:16:54;;;;;;;65.87;32.35;;;;;;;-4.04;71.07;102638.27;1474464;96;21227;-83
2022/03/02 04:19:21;;;;;;;62.78;30.88;;;;;;;-4.11;71.04;102622.48;1479402;94;22589;-82
2022/03/02 04:21:47;;;;;;;63.40;31.07;;;;;;;-4.04;71.03;102634.02;1471850;96;21811;-83
2022/03/02 04:24:14;;;;;;;60.85;31.10;;;;;;;-4.04;71.03;102628.88;1472028;95;21807;-84
2022/03/02 04:26:41;;;;;;;61.33;32.53;;;;;;;-4.02;71.09;102629.05;1457936;96;21205;-83
2022/03/02 04:29:08;;;;;;;71.25;32.00;;;;;;;-4.01;71.11;102621.52;1468086;96;21185;-83
2022/03/02 04:31:35;;;;;;;63.50;32.83;;;;;;;-3.99;71.07;102623.89;1471909;96;21191;-83
2022/03/02 04:34:01;;;;;;;59.75;30.90;;;;;;;-3.99;71.01;102628.12;1498381;95;21296;-84
2022/03/02 04:36:28;;;;;;;62.58;32.17;;;;;;;-4.01;71.01;102624.47;1509891;93;21790;-83
2022/03/02 04:38:55;;;;;;;64.92;32.80;;;;;;;-4.01;71.05;102625.38;1509764;95;21134;-84
2022/03/02 04:41:21;;;;;;;57.25;30.15;;;;;;;-4.02;70.99;102620.05;1502419;93;21186;-83
2022/03/02 04:43:48;;;;;;;58.70;29.55;;;;;;;-4.06;70.90;102620.45;1567792;82;20987;-83
2022/03/02 04:46:15;;;;;;;60.40;31.50;;;;;;;-4.07;70.94;102619.89;1650902;84;21095;-84
2022/03/02 04:48:41;;;;;;;63.90;30.32;;;;;;;-4.05;70.98;102628.35;1686033;83;21733;-84
2022/03/02 04:51:08;;;;;;;63.98;31.87;;;;;;;-4.03;71.02;102624.67;1661809;85;21579;-84
2022/03/02 04:53:35;;;;;;;59.35;31.50;;;;;;;-4.05;70.86;102626.13;1668744;85;21035;-83
2022/03/02 04:56:04;;;;;;;62.70;30.95;;;;;;;-4.10;70.86;102621.76;1677904;85;21051;-82
2022/03/02 04:58:31;;;;;;;59.67;31.02;;;;;;;-4.17;70.79;102617.56;1703323;84;21786;-86
2022/03/02 05:00:58;;;;;;;63.02;32.15;;;;;;;-4.20;70.82;102609.90;1652706;85;22659;-86
2022/03/02 05:03:24;;;;;;;63.25;34.70;;;;;;;-4.24;70.89;102609.92;1696053;84;21033;-85
2022/03/02 05:05:51;;;;;;;64.32;34.43;;;;;;;-4.22;70.99;102609.72;1696522;84;21076;-84
2022/03/02 05:08:17;;;;;;;62.73;33.20;;;;;;;-4.23;71.04;102601.45;1696699;84;21132;-86
2022/03/02 05:10:44;;;;;;;61.70;33.13;;;;;;;-4.25;71.12;102600.36;1697049;84;21029;-86
2022/03/02 05:13:11;;;;;;;57.98;31.00;;;;;;;-4.26;71.22;102594.69;1696533;83;21918;-84
2022/03/02 05:15:37;;;;;;;63.10;33.58;;;;;;;-4.26;71.29;102588.27;1707304;82;21154;-86
2022/03/02 05:18:04;;;;;;;64.00;32.88;;;;;;;-4.24;71.40;102585.84;1697339;82;21062;-85
2022/03/02 05:20:30;;;;;;;66.40;33.78;;;;;;;-4.26;71.39;102583.12;1689301;84;21082;-85
2022/03/02 05:22:57;;;;;;;61.60;32.50;;;;;;;-4.23;71.53;102583.45;1689786;84;21059;-86
2022/03/02 05:25:24;;;;;;;66.28;32.67;;;;;;;-4.22;71.42;102586.58;1689807;84;21716;-84
2022/03/02 05:27:51;;;;;;;71.10;34.15;;;;;;;-4.21;71.41;102578.48;1689100;84;21022;-83
2022/03/02 05:30:18;;;;;;;66.05;34.50;;;;;;;-4.18;71.49;102580.13;1689068;84;21073;-82
2022/03/02 05:32:45;;;;;;;65.30;34.10;;;;;;;-4.17;71.37;102578.98;1704618;82;21110;-85
2022/03/02 05:35:14;;;;;;;61.65;31.95;;;;;;;-4.19;71.40;102581.76;1714666;81;21082;-82
2022/03/02 05:37:42;;;;;;;70.83;33.65;;;;;;;-4.20;71.35;102581.61;1677888;84;21848;-81
2022/03/02 05:40:13;;;;;;;67.85;33.60;;;;;;;-4.21;71.34;102580.67;1651474;86;21056;-85
2022/03/02 05:42:39;;;;;;;67.03;33.20;;;;;;;-4.25;71.24;102577.22;1710247;83;21086;-84
2022/03/02 05:45:07;;;;;;;65.60;32.10;;;;;;;-4.31;71.14;102581.30;1710414;82;21070;-87
2022/03/02 05:47:36;;;;;;;65.83;33.13;;;;;;;-4.36;71.10;102576.37;1678648;85;21023;-86
2022/03/02 05:50:04;;;;;;;69.97;32.70;;;;;;;-4.40;71.19;102575.48;1652220;86;21633;-86
2022/03/02 05:52:30;;;;;;;62.88;32.17;;;;;;;-4.37;71.37;102566.84;1711152;83;21047;-87
2022/03/02 05:54:57;;;;;;;63.10;34.33;;;;;;;-4.33;71.54;102567.73;1678573;85;21157;-87
2022/03/02 05:57:23;;;;;;;71.80;36.17;;;;;;;-4.30;71.64;102559.06;1685601;83;21141;-86
2022/03/02 05:59:50;;;;;;;74.27;36.40;;;;;;;-4.20;71.79;102562.33;1697249;84;21052;-86
2022/03/02 06:02:17;;;;;;;69.92;35.92;;;;;;;-4.10;71.96;102563.52;1696799;83;22023;-87
2022/03/02 06:04:46;;;;;;;70.00;37.35;;;;;;;-4.01;71.91;102565.31;1696759;84;21052;-83
2022/03/02 06:07:13;;;;;;;66.70;35.63;;;;;;;-3.95;71.93;102566.89;1696888;83;21110;-85
2022/03/02 06:09:40;;;;;;;70.47;35.30;;;;;;;-3.87;71.95;102562.61;1697209;84;21067;-86
2022/03/02 06:12:08;;;;;;;70.92;33.65;;;;;;;-3.82;71.87;102563.14;1696945;83;21094;-83
2022/03/02 06:14:35;;;;;;;66.07;33.30;;;;;;;-3.77;71.83;102566.77;1696839;84;22661;-83
2022/03/02 06:17:03;;;;;;;69.10;34.83;;;;;;;-3.72;72.01;102560.48;1696476;83;21067;-84
2022/03/02 06:19:30;;;;;;;79.60;39.48;;;;;;;-3.64;71.94;102558.75;1685896;84;21091;-84
2022/03/02 06:21:56;;;;;;;89.47;44.60;;;;;;;-3.60;71.80;102560.01;1682581;84;21195;-84
2022/03/02 06:24:24;;;;;;;98.62;49.05;;;;;;;-3.58;71.75;102555.56;1676664;82;21106;-84
2022/03/02 06:26:50;;;;;;;99.40;49.75;;;;;;;-3.52;71.67;102560.47;1685146;83;21771;-84
2022/03/02 06:29:17;;;;;;;89.70;46.42;;;;;;;-3.46;71.70;102558.56;1713516;83;21588;-84
2022/03/02 06:31:43;;;;;;;101.72;46.23;;;;;;;-3.40;71.72;102556.66;1713539;83;21062;-84
2022/03/02 06:34:10;;;;;;;100.25;48.38;;;;;;;-3.35;71.73;102552.93;1721414;83;21054;-84
2022/03/02 06:36:37;;;;;;;103.92;46.83;;;;;;;-3.30;71.72;102549.94;1684233;85;21028;-84
2022/03/02 06:39:05;;;;;;;107.47;48.83;;;;;;;-3.24;71.79;102550.25;1714061;83;21752;-84
2022/03/02 06:41:56;;;;;;;104.58;49.50;;;;;;;-3.15;71.86;102552.92;1721478;83;21078;-84
2022/03/02 06:44:49;;;;;;;103.70;48.33;;;;;;;-3.07;71.93;102562.77;1721521;83;21015;-84
2022/03/02 06:47:27;;;;;;;104.17;48.25;;;;;;;-2.96;71.99;102563.18;1720581;83;21073;-84
2022/03/02 06:50:09;;;;;;;90.17;45.38;;;;;;;-2.87;71.96;102552.96;1684115;85;21191;-84
2022/03/02 06:52:43;;;;;;;83.12;43.52;;;;;;;-2.76;72.00;102548.59;1690182;83;21773;-84
2022/03/02 06:55:16;;;;;;;76.40;42.48;;;;;;;-2.63;71.97;102546.01;1721433;83;21054;-84
2022/03/02 06:57:50;;;;;;;83.35;41.88;;;;;;;-2.54;72.04;102546.61;1684471;85;21087;-84
2022/03/02 07:00:17;;;;;;;80.22;41.25;;;;;;;-2.45;72.13;102544.48;1714362;83;21811;-84
2022/03/02 07:02:54;;;;;;;97.62;48.40;;;;;;;-2.31;72.14;102543.35;1713972;83;21020;-83
2022/03/02 07:05:20;;;;;;;122.85;58.25;;;;;;;-2.21;72.07;102535.45;1714047;83;21788;-83
2022/03/02 07:07:48;;;;;;;116.12;54.00;;;;;;;-2.09;72.11;102537.11;1721374;83;21030;-84
2022/03/02 07:10:14;;;;;;;114.45;54.73;;;;;;;-2.01;72.03;102540.48;1721370;83;21050;-84
2022/03/02 07:12:41;;;;;;;104.15;50.52;;;;;;;-1.93;72.03;102536.11;1684135;85;21039;-84
2022/03/02 07:15:09;;;;;;;104.50;50.45;;;;;;;-1.85;71.98;102536.55;1714259;83;21062;-84
2022/03/02 07:17:35;;;;;;;108.37;50.60;;;;;;;-1.77;71.97;102535.66;1714203;83;21508;-83
2022/03/02 07:20:10;;;;;;;134.12;53.92;;;;;;;-1.68;71.96;102523.70;1721358;83;21114;-83
2022/03/02 07:22:44;;;;;;;117.97;53.65;;;;;;;-1.56;71.95;102522.74;1683805;83;21593;-84
2022/03/02 07:25:22;;;;;;;117.05;51.25;;;;;;;-1.43;71.92;102528.40;1713644;83;28247;-83
2022/03/02 07:27:53;;;;;;;114.85;52.33;;;;;;;-1.31;71.84;102533.02;1720526;83;21770;-83
2022/03/02 07:30:17;;;;;;;131.63;63.92;;;;;;;-1.17;71.83;102523.67;1683525;83;21965;-84
2022/03/02 07:32:45;;;;;;;104.40;55.98;;;;;;;-1.06;71.66;102528.25;1711000;83;21136;-83
2022/03/02 07:35:13;;;;;;;106.75;50.43;;;;;;;-0.93;71.55;102523.92;1715484;83;21643;-84
2022/03/02 07:37:40;;;;;;;116.77;53.02;;;;;;;-0.83;71.47;102520.19;1676407;85;21225;-83
2022/03/02 07:40:07;;;;;;;154.42;66.15;;;;;;;-0.69;71.49;102519.38;1708561;84;21074;-84
2022/03/02 07:42:34;;;;;;;150.95;66.15;;;;;;;-0.57;71.42;102512.80;1708487;84;21753;-84
2022/03/02 07:45:01;;;;;;;164.88;69.05;;;;;;;-0.45;71.37;102509.20;1715815;83;21114;-83
2022/03/02 07:47:27;;;;;;;109.85;51.95;;;;;;;-0.33;71.29;102510.80;1708200;84;21078;-84
2022/03/02 07:49:54;;;;;;;78.70;40.35;;;;;;;-0.20;71.17;102516.39;1708685;84;21110;-83
2022/03/02 07:52:25;;;;;;;68.60;38.28;;;;;;;-0.07;71.09;102513.31;1715858;83;21615;-85
2022/03/02 07:54:55;;;;;;;77.70;40.78;;;;;;;0.03;70.97;102515.09;1676360;85;21820;-84
2022/03/02 07:57:21;;;;;;;77.08;46.30;;;;;;;0.12;70.98;102512.09;1708493;84;21138;-83
2022/03/02 07:59:48;;;;;;;83.03;47.70;;;;;;;0.22;70.95;102508.70;1715998;83;21054;-83
2022/03/02 08:02:15;;;;;;;82.47;44.45;;;;;;;0.32;70.93;102504.90;1654959;85;21063;-84
2022/03/02 08:04:42;;;;;;;61.70;37.73;;;;;;;0.42;70.93;102494.66;1708868;84;21601;-83
2022/03/02 08:07:10;;;;;;;82.75;46.33;;;;;;;0.55;70.96;102503.20;1715962;83;21750;-83
2022/03/02 08:09:37;;;;;;;77.22;45.20;;;;;;;0.67;70.92;102495.64;1708548;84;21035;-83
2022/03/02 08:12:06;;;;;;;72.42;38.98;;;;;;;0.80;70.85;102492.51;1715915;83;21103;-83
2022/03/02 08:14:32;;;;;;;90.28;51.42;;;;;;;0.91;70.80;102491.81;1708506;83;21243;-83
2022/03/02 08:16:59;;;;;;;87.02;50.30;;;;;;;1.03;70.70;102490.33;1715586;83;21067;-83
2022/03/02 08:19:26;;;;;;;76.42;41.63;;;;;;;1.18;70.52;102483.42;1715678;83;22713;-84
2022/03/02 08:21:58;;;;;;;107.35;61.70;;;;;;;1.29;70.34;102490.09;1714525;83;21047;-83
2022/03/02 08:24:29;;;;;;;96.37;56.40;;;;;;;1.42;70.11;102484.34;1708330;84;21114;-83
2022/03/02 08:26:59;;;;;;;62.38;35.38;;;;;;;1.53;69.87;102482.70;1715853;83;21270;-83
2022/03/02 08:29:27;;;;;;;71.92;37.70;;;;;;;1.64;69.64;102484.58;1707762;83;21066;-84
2022/03/02 08:31:54;;;;;;;65.03;33.85;;;;;;;1.78;69.43;102477.09;1715842;83;22170;-83
2022/03/02 08:34:20;;;;;;;143.32;71.02;;;;;;;1.89;69.03;102474.66;1684298;83;21090;-84
2022/03/02 08:36:47;;;;;;;71.40;37.80;;;;;;;1.99;68.84;102468.97;1684617;85;21604;-84
2022/03/02 08:39:14;;;;;;;190.73;89.35;;;;;;;2.10;68.65;102466.55;1676691;85;21592;-83
2022/03/02 08:41:41;;;;;;;71.15;38.23;;;;;;;2.21;68.53;102467.45;1684590;83;21723;-83
2022/03/02 08:44:11;;;;;;;99.55;47.23;;;;;;;2.31;68.21;102462.28;1684542;83;22558;-83
2022/03/02 08:46:38;;;;;;;97.50;43.38;;;;;;;2.44;67.90;102464.61;1684429;83;21051;-84
2022/03/02 08:49:05;;;;;;;66.37;37.38;;;;;;;2.56;67.62;102464.37;1684259;83;21558;-84
2022/03/02 08:51:32;;;;;;;60.88;33.38;;;;;;;2.67;67.45;102459.69;1684426;85;21098;-83
2022/03/02 08:54:00;;;;;;;139.90;57.85;;;;;;;2.80;67.13;102458.13;1660847;84;21016;-83
2022/03/02 08:56:27;;;;;;;118.40;51.23;;;;;;;2.89;66.96;102462.77;1684349;85;21745;-83
2022/03/02 08:58:54;;;;;;;61.45;32.23;;;;;;;3.00;66.73;102459.77;1684352;85;21517;-84
2022/03/02 09:01:20;;;;;;;61.65;31.52;;;;;;;3.09;66.32;102460.13;1684720;85;21082;-84
2022/03/02 09:03:51;;;;;;;57.65;29.18;;;;;;;3.19;66.18;102461.83;1684542;83;21091;-84
2022/03/02 09:06:19;;;;;;;56.68;30.20;;;;;;;3.27;65.93;102456.84;1684653;83;21078;-84
2022/03/02 09:08:46;;;;;;;55.78;29.65;;;;;;;3.37;65.69;102453.70;1684770;85;21790;-84
2022/03/02 09:11:13;;;;;;;58.48;28.90;;;;;;;3.44;65.44;102456.92;1684393;85;21110;-84
2022/03/02 09:13:40;;;;;;;42.90;23.60;;;;;;;3.53;65.15;102459.73;1684577;85;21032;-84
2022/03/02 09:16:07;;;;;;;45.48;25.20;;;;;;;3.62;64.86;102460.11;1689366;84;21106;-84
2022/03/02 09:18:34;;;;;;;83.97;42.23;;;;;;;3.71;64.48;102458.62;1684543;83;21098;-83
2022/03/02 09:21:02;;;;;;;29.98;16.93;;;;;;;3.78;63.81;102455.73;1684591;85;21739;-84
2022/03/02 09:23:31;;;;;;;68.05;37.55;;;;;;;3.85;63.17;102451.53;1684624;85;21074;-84
2022/03/02 09:26:03;;;;;;;99.20;51.95;;;;;;;3.90;62.81;102444.06;1684485;85;21083;-84
2022/03/02 09:28:29;;;;;;;63.45;36.68;;;;;;;3.95;62.64;102445.34;1683328;84;21145;-84
2022/03/02 09:30:56;;;;;;;96.75;53.95;;;;;;;4.00;62.24;102445.72;1638664;85;21107;-85
2022/03/02 09:33:23;;;;;;;33.75;17.50;;;;;;;4.01;61.94;102443.21;1684110;83;21787;-85
2022/03/02 09:35:51;;;;;;;22.82;14.18;;;;;;;4.07;61.74;102441.11;1684296;85;21167;-85
2022/03/02 09:38:20;;;;;;;24.35;14.87;;;;;;;4.12;61.23;102439.25;1684425;85;21066;-85
2022/03/02 09:40:47;;;;;;;38.53;25.05;;;;;;;4.15;61.02;102445.61;1684361;83;21611;-85
2022/03/02 09:43:19;;;;;;;28.87;15.50;;;;;;;4.18;60.92;102439.72;1660872;84;21094;-85
2022/03/02 09:45:48;;;;;;;27.75;16.60;;;;;;;4.23;60.46;102437.09;1684537;83;22474;-85
2022/03/02 09:48:20;;;;;;;18.52;11.60;;;;;;;4.28;59.98;102433.15;1684306;85;21158;-85
2022/03/02 09:50:46;;;;;;;22.17;12.45;;;;;;;4.33;59.70;102431.78;1683360;83;21098;-85
2022/03/02 09:53:14;;;;;;;52.05;30.32;;;;;;;4.39;59.55;102430.04;1684433;85;21126;-85
2022/03/02 09:55:40;;;;;;;22.15;14.30;;;;;;;4.44;59.39;102422.18;1684565;85;21062;-85
2022/03/02 09:58:07;;;;;;;24.90;15.00;;;;;;;4.47;59.00;102416.81;1684403;85;21693;-85
2022/03/02 10:00:35;;;;;;;22.17;13.90;;;;;;;4.52;58.92;102411.93;1684455;85;21599;-85
2022/03/02 10:03:02;;;;;;;84.22;36.93;;;;;;;4.56;58.79;102402.64;1684872;85;21142;-86
2022/03/02 10:05:32;;;;;;;79.70;38.63;;;;;;;4.59;58.36;102403.78;1684772;85;21173;-85
2022/03/02 10:08:11;;;;;;;39.60;19.82;;;;;;;4.63;58.36;102404.52;1684492;85;21015;-86
2022/03/02 10:10:38;;;;;;;63.25;33.53;;;;;;;4.69;58.23;102405.38;1684181;83;21792;-85
2022/03/02 10:13:09;;;;;;;66.10;35.38;;;;;;;4.74;57.96;102403.14;1684496;85;21111;-85
2022/03/02 10:15:36;;;;;;;42.13;24.12;;;;;;;4.77;57.88;102393.84;1684422;83;21130;-85
2022/03/02 10:18:05;;;;;;;30.80;19.07;;;;;;;4.80;57.76;102391.84;1684482;85;21181;-85
2022/03/02 10:20:35;;;;;;;32.63;19.62;;;;;;;4.86;57.37;102390.62;1684569;85;21109;-85
2022/03/02 10:23:27;;;;;;;48.78;28.35;;;;;;;4.91;57.22;102393.96;1661564;85;21818;-85
2022/03/02 10:26:18;;;;;;;30.10;18.42;;;;;;;4.95;57.24;102390.78;1684442;83;21101;-85
2022/03/02 10:29:05;;;;;;;24.98;16.15;;;;;;;5.05;57.03;102386.77;1684432;83;21090;-85
2022/03/02 10:32:08;;;;;;;26.07;16.23;;;;;;;5.12;56.90;102382.88;1684528;83;21153;-85
2022/03/02 10:34:39;;;;;;;29.65;20.62;;;;;;;5.20;56.78;102381.36;1684266;83;21074;-84
2022/03/02 10:37:17;;;;;;;36.95;21.77;;;;;;;5.32;56.68;102376.52;1684174;85;21819;-84
2022/03/02 10:39:55;;;;;;;37.65;24.07;;;;;;;5.41;56.47;102375.47;1684447;84;21042;-83
2022/03/02 10:42:28;;;;;;;26.23;15.18;;;;;;;5.51;56.32;102373.11;1684523;85;21611;-83
2022/03/02 10:45:12;;;;;;;29.05;15.58;;;;;;;5.62;56.05;102368.66;1683969;83;21091;-84
2022/03/02 10:47:55;;;;;;;23.40;14.95;;;;;;;5.74;55.90;102369.92;1684501;85;21016;-84
2022/03/02 10:50:24;;;;;;;26.42;16.48;;;;;;;5.85;55.60;102371.17;1688810;84;23216;-85
2022/03/02 10:52:52;;;;;;;21.75;14.05;;;;;;;5.97;55.37;102368.97;1684325;83;21115;-84
2022/03/02 10:55:19;;;;;;;21.82;14.00;;;;;;;6.09;55.12;102371.11;1684149;85;21110;-84
2022/03/02 10:57:48;;;;;;;20.25;12.68;;;;;;;6.19;54.78;102355.27;1684425;85;21167;-84
2022/03/02 11:00:17;;;;;;;22.22;14.55;;;;;;;6.31;54.46;102355.20;1688720;83;21089;-84
2022/03/02 11:02:46;;;;;;;19.32;13.28;;;;;;;6.45;54.47;102353.91;1684567;83;22092;-84
2022/03/02 11:05:15;;;;;;;21.77;13.38;;;;;;;6.60;54.36;102351.01;1684285;84;21067;-84
2022/03/02 11:07:41;;;;;;;22.32;14.68;;;;;;;6.73;53.76;102349.70;1684458;83;21066;-84
2022/03/02 11:10:12;;;;;;;25.60;14.13;;;;;;;6.83;53.48;102343.77;1684503;85;21047;-84
2022/03/02 11:12:42;;;;;;;24.12;14.60;;;;;;;6.91;53.33;102338.25;1684505;85;21032;-84
2022/03/02 11:15:09;;;;;;;23.73;14.70;;;;;;;7.06;53.22;102338.72;1684323;85;21746;-84